Terminal Aerodrome Forecast
Issued by NWS

Home | Current Version | Previous Version | Text Only | Print | Product List | Glossary On
Versions: 1 2 3 4 5 6 7 8 9 10 11 12 13 14 15
313
FTUS42 KMLB 081731
TAFTIX
TAF
KTIX 081731Z 0818/0918 34008KT P6SM FEW030 SCT120
     FM090300 34010KT P6SM BKN120
     FM091200 34012KT P6SM BKN100 OVC120=

USA.gov is the U.S. government's official web portal to all federal, state and local government web resources and services.